Nearby METAR* Reports

*"METAR [Météorologique Aviation Régulière] is the international standard code format for hourly surface weather observations which is analogous to the SA coding currently used in the US. The acronym roughly translates from French as Aviation Routine Weather Report." (Source: http://gosic.org/wdcmet/us-metar-faq-taf)

 

KTEB - Teterboro, New Jersey, USA
Distance from station: ENE 2mi, 3km
Updated: 07/24/2017 3:51pm
Overcast
Overcast
 Wind from NNE
Wind: NNE 9 mph , 15 km/h
Temperature: 70°F , 21°C
Dew Point: 59°F , 15°C
Humidity: 69%
Barometer: 29.84 inHg , 1010.5 hPa
Clouds: Overcast
Visibility: 10 miles , 16 km
Cloud details: Overcast 2400 ft
2017/07/24 19:51 KTEB 241951Z 03008KT 10SM OVC024 21/15 A2984 RMK AO2 SLP103 T02110150 $
KNYC - Nyc/Central Park, New York, USA
Distance from station: SE 8mi, 13km
Updated: 07/24/2017 3:51pm
Overcast
Overcast
 Wind from varies
Wind: varies 5 mph , 7 km/h
Temperature: 68°F , 20°C
Dew Point: 61°F , 16°C
Humidity: 78%
Barometer: 29.88 inHg , 1011.9 hPa
Clouds: Overcast
Visibility: 10 miles , 16 km
Cloud details: Overcast 2100 ft
2017/07/24 19:51 KNYC 241951Z AUTO VRB04KT 10SM OVC021 20/16 A2988 RMK AO2 SLP108 T02000161
KCDW - Caldwell, New Jersey, USA
Distance from station: W 11mi, 17km
Updated: 07/24/2017 3:53pm
Overcast
Overcast
 Wind from varies
Wind: varies 6 mph , 9 km/h
Temperature: 70°F , 21°C
Dew Point: 61°F , 16°C
Humidity: 73%
Barometer: 29.85 inHg , 1010.8 hPa
Clouds: Overcast
Visibility: 10 miles , 16 km
Cloud details: Partly cloudy 1800 ft
Overcast 2600 ft
2017/07/24 19:53 KCDW 241953Z VRB05KT 10SM SCT018 OVC026 21/16 A2985 RMK AO2 SLP112 T02110161
 
KLGA - Nyc/La Guardia, New York, USA
Distance from station: ESE 12mi, 19km
Updated: 07/24/2017 3:51pm
Overcast
Overcast
 Wind from NE
Wind: NE 13 mph , 20 km/h
Temperature: 66°F , 19°C
Dew Point: 61°F , 16°C
Humidity: 83%
Barometer: 29.85 inHg , 1010.8 hPa
Clouds: Overcast
Visibility: 10 miles , 16 km
Cloud details: Overcast 2000 ft
2017/07/24 19:51 KLGA 241951Z 05011KT 10SM OVC020 19/16 A2985 RMK AO2 SLP107 T01940156 CHINO R22 SW VISNO R22 SW $
KEWR - Newark, New Jersey, USA
Distance from station: SSW 13mi, 20km
Updated: 07/24/2017 3:51pm
Overcast
Overcast
 Wind from NNE
Wind: NNE 13 mph , 20 km/h
Temperature: 70°F , 21°C
Dew Point: 61°F , 16°C
Humidity: 73%
Barometer: 29.84 inHg , 1010.5 hPa
Clouds: Overcast
Visibility: 10 miles , 16 km
Cloud details: Overcast 2100 ft
2017/07/24 19:51 KEWR 241951Z 03011KT 10SM OVC021 21/16 A2984 RMK AO2 SLP105 T02110156
KMMU - Morristown Muni, New Jersey, USA
Distance from station: WSW 18mi, 29km
Updated: 07/24/2017 3:45pm
Mostly cloudy
Mostly cloudy
 Wind from ENE
Wind: ENE 8 mph , 13 km/h
Temperature: 70°F , 21°C
Dew Point: 63°F , 17°C
Humidity: 78%
Barometer: 29.85 inHg , 1010.8 hPa
Clouds: Mostly cloudy
Visibility: 10 miles , 16 km
Cloud details: Mostly cloudy 2500 ft
2017/07/24 19:45 KMMU 241945Z 07007KT 10SM BKN025 21/17 A2985
 
KLDJ - Linden, New Jersey, USA
Distance from station: SSW 19mi, 30km
Updated: 07/24/2017 4:15pm
Overcast
Overcast
 Wind from NNE
Wind: NNE 9 mph , 15 km/h
Temperature: 73°F , 23°C
Dew Point: 59°F , 15°C
Humidity: 61%
Barometer: 29.85 inHg , 1010.8 hPa
Clouds: Overcast
Visibility: 10 miles , 16 km
Cloud details: Overcast 2600 ft
2017/07/24 20:15 KLDJ 242015Z AUTO 03008KT 10SM OVC026 23/15 A2985 RMK AO2 T02270150
KJFK - Nyc/Jfk Arpt, New York, USA
Distance from station: SE 23mi, 36km
Updated: 07/24/2017 3:51pm
Mostly cloudy
Mostly cloudy
 Wind from N
Wind: N 10 mph , 17 km/h
Temperature: 70°F , 21°C
Dew Point: 61°F , 16°C
Humidity: 73%
Barometer: 29.85 inHg , 1010.8 hPa
Clouds: Mostly cloudy
Visibility: 10 miles , 16 km
Cloud details: Mostly cloudy 1700 ft
2017/07/24 19:51 KJFK 241951Z 01009KT 10SM BKN017 21/16 A2985 RMK AO2 SLP108 T02060161
KHPN - White Plains, New York, USA
Distance from station: NE 25mi, 40km
Updated: 07/24/2017 3:56pm
Mostly cloudy
Mostly cloudy
 Wind from NNE
Wind: NNE 10 mph , 17 km/h
Temperature: 66°F , 19°C
Dew Point: 57°F , 14°C
Humidity: 73%
Barometer: 29.86 inHg , 1011.2 hPa
Clouds: Mostly cloudy
Visibility: 10 miles , 16 km
Cloud details: Mostly cloudy 1700 ft
Mostly cloudy 2200 ft
2017/07/24 19:56 KHPN 241956Z 02009KT 10SM BKN017 BKN022 19/14 A2986 RMK AO2 SLP106 T01940144 $
 
KSMQ - Somerville, New Jersey, USA
Distance from station: WSW 35mi, 56km
Updated: 07/24/2017 4:20pm
Few Clouds
Few Clouds
 Wind from E
Wind: E 6 mph , 9 km/h
Temperature: 77°F , 25°C
Dew Point: 66°F , 19°C
Humidity: 69%
Barometer: 29.81 inHg , 1009.5 hPa
Clouds: Few Clouds
Visibility: 10 miles , 16 km
Cloud details: Few Clouds 2800 ft
2017/07/24 20:20 KSMQ 242020Z AUTO 09005KT 10SM FEW028 25/19 A2981 RMK AO2 T02500189
K12N - Andover, New Jersey, USA
Distance from station: WNW 36mi, 57km
Updated: 07/24/2017 3:54pm

 Wind from NE
Wind: NE 7 mph , 11 km/h
Temperature: 72°F , 22°C
Dew Point: 63°F , 17°C
Humidity: 73%
Barometer: 29.86 inHg , 1011.2 hPa
2017/07/24 19:54 K12N 241954Z AUTO 04006KT 22/17 A2986 RMK AO1 SLP103 T02220172
KFRG - Farmingdale, New York, USA
Distance from station: ESE 36mi, 58km
Updated: 07/24/2017 3:53pm
Overcast
Overcast
 Wind from NE
Wind: NE 17 mph , 28 km/h
Temperature: 64°F , 18°C
Dew Point: 57°F , 14°C
Humidity: 78%
Barometer: 29.84 inHg , 1010.5 hPa
Clouds: Overcast
Visibility: 10 miles , 16 km
Cloud details: Overcast 1500 ft
2017/07/24 19:53 KFRG 241953Z 04015KT 10SM OVC015 18/14 A2984 RMK AO2 SLP104 T01830144
 
KFWN - Sussex, New Jersey, USA
Distance from station: NW 37mi, 60km
Updated: 07/24/2017 3:53pm
Overcast
Overcast
 Wind from N
Wind: N 3 mph , 6 km/h
Temperature: 70°F , 21°C
Dew Point: 63°F , 17°C
Humidity: 78%
Barometer: 29.87 inHg , 1011.5 hPa
Clouds: Overcast
Visibility: 10 miles , 16 km
Cloud details: Overcast 1900 ft
2017/07/24 19:53 KFWN 241953Z AUTO 36003KT 10SM OVC019 21/17 A2987 RMK AO2 SLP111 T02060167
KSWF - Newburgh/Stewart, New York, USA
Distance from station: 0 44mi, 72km
Updated: 07/24/2017 3:45pm
Overcast
Overcast
 Wind from ENE
Wind: ENE 12 mph , 19 km/h
Temperature: 68°F , 20°C
Dew Point: 61°F , 16°C
Humidity: 78%
Barometer: 29.87 inHg , 1011.5 hPa
Clouds: Overcast
Visibility: 10 miles , 16 km
Cloud details: Overcast 1800 ft
2017/07/24 19:45 KSWF 241945Z 07010KT 10SM OVC018 20/16 A2987
KMGJ - Montgomery, New York, USA
Distance from station: NNW 47mi, 75km
Updated: 07/24/2017 3:54pm
Overcast
Overcast
 Wind from NNE
Wind: NNE 9 mph , 15 km/h
Temperature: 66°F , 19°C
Dew Point: 59°F , 15°C
Humidity: 78%
Barometer: 29.87 inHg , 1011.5 hPa
Clouds: Overcast
Visibility: 10 miles , 16 km
Cloud details: Overcast 2000 ft
2017/07/24 19:54 KMGJ 241954Z AUTO 03008KT 10SM OVC020 19/15 A2987 RMK AO2 SLP112 T01940150 TSNO
 
KDXR - Danbury, Connecticut, USA
Distance from station: NE 47mi, 76km
Updated: 07/24/2017 3:53pm
Overcast
Overcast
 Wind from NE
Wind: NE 9 mph , 15 km/h
Temperature: 64°F , 18°C
Dew Point: 57°F , 14°C
Humidity: 78%
Barometer: 29.88 inHg , 1011.9 hPa
Clouds: Overcast
Visibility: 10 miles , 16 km
Cloud details: Mostly cloudy 1900 ft
Overcast 2900 ft
2017/07/24 19:53 KDXR 241953Z 04008KT 10SM BKN019 OVC029 18/14 A2988 RMK AO2 SLP115 T01830139
KBLM - Belmar/Farmdale, New Jersey, USA
Distance from station: S 48mi, 77km
Updated: 07/24/2017 4:22pm
Partly cloudy
Partly cloudy
 Wind from N
Wind: N 8 mph , 13 km/h
Temperature: 72°F , 22°C
Dew Point: 63°F , 17°C
Humidity: 73%
Barometer: 29.85 inHg , 1010.8 hPa
Clouds: Partly cloudy
Visibility: 10 miles , 16 km
Cloud details: Partly cloudy 1700 ft
2017/07/24 20:22 KBLM 242022Z AUTO 35007KT 10SM SCT017 22/17 A2985 RMK AO2